Time;durP1;ratioP1;P1;durP2;ratioP2;P2;SDS_P1;SDS_P2;PMS_P1;PMS_P2;Temp;Humidity;BMP_temperature;BMP_pressure;BME280_temperature;BME280_humidity;BME280_pressure;Samples;Min_cycle;Max_cycle;Signal;HPM_P1;HPM_P2
2023/08/23 00:01:56;;;;;;;7.32;6.15;;;16.40;99.90;;;;;;5053429;28;20039;-54
2023/08/23 00:04:22;;;;;;;7.70;6.38;;;16.30;99.90;;;;;;5061213;28;20045;-56
2023/08/23 00:06:50;;;;;;;5.55;4.38;;;16.30;99.90;;;;;;5032461;28;20051;-55
2023/08/23 00:09:16;;;;;;;7.05;4.65;;;16.30;99.90;;;;;;5049414;28;20040;-53
2023/08/23 00:11:43;;;;;;;8.63;6.60;;;16.20;99.90;;;;;;5069406;28;20490;-54
2023/08/23 00:14:08;;;;;;;7.72;6.65;;;16.20;99.90;;;;;;5046917;28;20123;-55
2023/08/23 00:16:34;;;;;;;8.38;7.18;;;16.10;99.90;;;;;;5087118;28;20610;-53
2023/08/23 00:19:00;;;;;;;7.68;5.43;;;16.10;99.90;;;;;;5068257;28;20050;-55
2023/08/23 00:21:27;;;;;;;7.00;5.85;;;16.10;99.90;;;;;;5068077;28;20032;-54
2023/08/23 00:23:53;;;;;;;8.90;6.55;;;16.00;99.90;;;;;;5061849;28;20044;-54
2023/08/23 00:26:19;;;;;;;7.45;6.15;;;16.00;99.90;;;;;;5092279;28;20111;-51
2023/08/23 00:28:45;;;;;;;13.07;6.60;;;16.00;99.90;;;;;;5070393;28;20127;-53
2023/08/23 00:31:10;;;;;;;7.53;6.22;;;15.90;99.90;;;;;;5064610;28;20487;-56
2023/08/23 00:33:36;;;;;;;10.55;6.70;;;15.90;99.90;;;;;;5068238;28;20043;-50
2023/08/23 00:36:02;;;;;;;10.60;7.00;;;15.90;99.90;;;;;;5082694;28;20040;-54
2023/08/23 00:38:28;;;;;;;11.32;8.45;;;16.00;99.90;;;;;;5069960;28;20048;-54
2023/08/23 00:40:53;;;;;;;12.55;9.30;;;15.90;99.90;;;;;;5068385;28;20124;-53
2023/08/23 00:43:19;;;;;;;13.63;9.70;;;15.90;99.90;;;;;;5052049;28;20044;-56
2023/08/23 00:45:45;;;;;;;13.95;8.80;;;15.90;99.90;;;;;;5065366;28;20471;-53
2023/08/23 00:48:13;;;;;;;13.75;8.73;;;15.90;99.90;;;;;;5073125;28;20036;-51
2023/08/23 00:50:40;;;;;;;12.15;8.98;;;16.00;99.90;;;;;;5035255;28;20130;-53
2023/08/23 00:53:08;;;;;;;13.43;9.05;;;15.90;99.90;;;;;;5055371;28;20138;-55
2023/08/23 00:55:35;;;;;;;12.10;7.88;;;15.90;99.90;;;;;;5052013;28;20094;-52
2023/08/23 00:58:01;;;;;;;9.82;8.18;;;15.90;99.90;;;;;;5065799;28;20048;-52
2023/08/23 01:00:27;;;;;;;9.88;7.60;;;15.90;99.90;;;;;;5049208;28;20036;-53
2023/08/23 01:02:53;;;;;;;21.50;7.03;;;15.80;99.90;;;;;;5085047;28;20044;-54
2023/08/23 01:05:25;;;;;;;24.88;8.50;;;15.80;99.90;;;;;;5066001;28;20032;-54
2023/08/23 01:08:04;;;;;;;9.57;6.80;;;15.70;99.90;;;;;;5059538;28;20047;-53
2023/08/23 01:10:49;;;;;;;7.00;6.07;;;15.60;99.90;;;;;;5081821;28;20072;-54
2023/08/23 01:13:33;;;;;;;7.93;5.50;;;15.60;99.90;;;;;;5085950;28;20033;-56
2023/08/23 01:15:59;;;;;;;;;;;15.60;99.90;;;;;;5064549;28;20043;-54
2023/08/23 01:18:28;;;;;;;22.85;6.60;;;15.60;99.90;;;;;;5067718;28;19942;-52
2023/08/23 01:20:54;;;;;;;36.15;6.65;;;15.50;99.90;;;;;;5089992;28;20082;-53
2023/08/23 01:23:21;;;;;;;6.82;5.57;;;15.50;99.90;;;;;;5056334;28;20071;-54
2023/08/23 01:25:51;;;;;;;7.35;6.35;;;15.50;99.90;;;;;;5054074;28;20042;-56
2023/08/23 01:28:18;;;;;;;10.23;8.02;;;15.50;99.90;;;;;;5045074;28;20119;-54
2023/08/23 01:30:43;;;;;;;8.48;7.57;;;15.60;99.90;;;;;;5055825;28;20256;-55
2023/08/23 01:33:32;;;;;;;9.85;8.43;;;15.60;99.90;;;;;;5067594;28;20133;-52
2023/08/23 01:36:13;;;;;;;12.70;8.98;;;15.70;99.90;;;;;;5066053;28;20481;-51
2023/08/23 01:38:41;;;;;;;8.65;7.75;;;15.70;99.90;;;;;;5077466;28;20036;-50
2023/08/23 01:41:07;;;;;;;9.18;8.13;;;15.80;99.90;;;;;;5050275;28;20162;-51
2023/08/23 01:43:32;;;;;;;6.68;6.00;;;15.80;99.90;;;;;;5080430;28;20122;-51
2023/08/23 01:45:58;;;;;;;8.07;6.68;;;15.80;99.90;;;;;;5061272;28;20483;-53
2023/08/23 01:48:24;;;;;;;7.60;6.72;;;15.80;99.90;;;;;;5064372;28;20043;-50
2023/08/23 01:50:51;;;;;;;11.57;8.45;;;15.80;99.90;;;;;;5051331;28;20503;-54
2023/08/23 01:53:17;;;;;;;9.85;8.75;;;15.80;99.90;;;;;;5062547;28;20072;-52
2023/08/23 01:55:43;;;;;;;13.45;8.90;;;15.80;99.90;;;;;;5071923;28;20071;-54
2023/08/23 01:58:08;;;;;;;10.70;7.90;;;15.80;99.90;;;;;;5067645;28;20048;-50
2023/08/23 02:00:34;;;;;;;10.90;8.73;;;15.70;99.90;;;;;;5065575;28;20067;-51
2023/08/23 02:03:01;;;;;;;11.05;7.88;;;15.70;99.90;;;;;;5084462;28;20467;-53
2023/08/23 02:05:29;;;;;;;12.10;9.98;;;15.70;99.90;;;;;;5089112;28;20395;-50
2023/08/23 02:07:55;;;;;;;11.38;9.13;;;15.70;99.90;;;;;;5069682;28;20291;-52
2023/08/23 02:10:20;;;;;;;17.27;11.32;;;15.80;99.90;;;;;;5055834;28;20089;-54
2023/08/23 02:12:47;;;;;;;12.95;9.45;;;15.80;99.90;;;;;;5062812;28;20399;-50
2023/08/23 02:15:12;;;;;;;12.60;10.15;;;15.80;99.90;;;;;;5072980;28;20028;-53
2023/08/23 02:17:38;;;;;;;11.75;9.50;;;15.80;99.90;;;;;;5054546;28;20043;-54
2023/08/23 02:20:05;;;;;;;12.38;10.00;;;15.90;99.90;;;;;;5070136;28;20093;-57
2023/08/23 02:22:30;;;;;;;12.50;10.27;;;15.90;99.90;;;;;;5052555;28;20160;-52
2023/08/23 02:24:56;;;;;;;15.40;11.45;;;15.90;99.90;;;;;;5085842;28;20238;-53
2023/08/23 02:27:22;;;;;;;11.43;9.60;;;15.90;99.90;;;;;;5066210;28;20086;-50
2023/08/23 02:29:48;;;;;;;13.63;8.85;;;15.90;99.90;;;;;;5046427;28;20488;-54
2023/08/23 02:32:14;;;;;;;14.10;10.63;;;15.90;99.90;;;;;;5065870;28;20088;-54
2023/08/23 02:34:39;;;;;;;15.25;12.02;;;15.90;99.90;;;;;;5048679;28;20387;-57
2023/08/23 02:37:05;;;;;;;14.48;10.57;;;15.90;99.90;;;;;;5084080;28;20054;-50
2023/08/23 02:39:31;;;;;;;14.00;10.27;;;16.00;99.90;;;;;;5081990;28;20398;-55
2023/08/23 02:41:56;;;;;;;14.50;11.52;;;16.00;99.90;;;;;;5051877;28;20067;-51
2023/08/23 02:44:22;;;;;;;13.77;11.73;;;16.00;99.90;;;;;;5067072;28;20540;-50
2023/08/23 02:46:48;;;;;;;13.10;10.10;;;16.00;99.90;;;;;;5071998;28;20463;-52
2023/08/23 02:49:13;;;;;;;15.90;13.27;;;16.00;99.90;;;;;;5082564;28;20044;-51
2023/08/23 02:51:39;;;;;;;16.58;12.77;;;16.10;99.90;;;;;;5048265;28;20044;-55
2023/08/23 02:54:05;;;;;;;14.15;12.35;;;16.10;99.90;;;;;;5045339;28;20094;-52
2023/08/23 02:56:30;;;;;;;12.68;10.32;;;16.10;99.90;;;;;;5080347;28;20044;-51
2023/08/23 02:58:56;;;;;;;18.83;13.38;;;16.10;99.90;;;;;;5065286;28;20048;-54
2023/08/23 03:01:22;;;;;;;16.38;12.30;;;16.10;99.90;;;;;;5082121;28;20036;-53
2023/08/23 03:03:47;;;;;;;15.23;11.73;;;16.20;99.90;;;;;;5068429;28;20550;-51
2023/08/23 03:06:14;;;;;;;18.48;12.77;;;16.20;99.90;;;;;;5064022;28;20043;-51
2023/08/23 03:08:39;;;;;;;17.15;14.25;;;16.20;99.90;;;;;;5064697;28;20587;-53
2023/08/23 03:11:07;;;;;;;17.77;15.35;;;16.10;99.90;;;;;;5083896;28;20040;-52
2023/08/23 03:13:33;;;;;;;15.35;13.20;;;16.20;99.90;;;;;;5067693;28;20593;-55
2023/08/23 03:16:00;;;;;;;13.98;11.77;;;16.20;99.90;;;;;;5062435;28;20135;-54
2023/08/23 03:18:26;;;;;;;17.58;13.27;;;16.20;99.90;;;;;;5080365;28;20568;-54
2023/08/23 03:20:52;;;;;;;14.43;12.15;;;16.20;99.90;;;;;;5065324;28;20036;-53
2023/08/23 03:23:19;;;;;;;11.65;9.95;;;16.30;99.90;;;;;;5082262;28;20040;-54
2023/08/23 03:25:49;;;;;;;16.38;13.07;;;16.30;99.90;;;;;;5064090;28;20056;-56
2023/08/23 03:28:15;;;;;;;16.80;13.68;;;16.30;99.90;;;;;;5046201;28;20501;-55
2023/08/23 03:30:42;;;;;;;18.30;12.95;;;16.30;99.90;;;;;;5068519;28;20117;-54
2023/08/23 03:33:07;;;;;;;14.52;11.15;;;16.30;99.90;;;;;;5060020;28;20123;-54
2023/08/23 03:35:34;;;;;;;15.35;11.25;;;16.30;99.90;;;;;;5060466;28;20122;-55
2023/08/23 03:38:00;;;;;;;15.27;12.55;;;16.30;99.90;;;;;;5068035;28;20515;-56
2023/08/23 03:40:26;;;;;;;14.90;12.95;;;16.30;99.90;;;;;;5048031;28;20038;-56
2023/08/23 03:42:52;;;;;;;16.08;13.32;;;16.30;99.90;;;;;;5067956;28;20068;-55
2023/08/23 03:45:18;;;;;;;16.65;12.40;;;16.30;99.90;;;;;;5087259;28;20059;-53
2023/08/23 03:47:44;;;;;;;15.77;13.55;;;16.30;99.90;;;;;;5085488;28;20036;-54
2023/08/23 03:50:11;;;;;;;17.70;14.15;;;16.30;99.90;;;;;;5083784;28;20062;-54
2023/08/23 03:52:37;;;;;;;14.65;12.25;;;16.30;99.90;;;;;;5063434;28;20063;-52
2023/08/23 03:55:03;;;;;;;15.23;13.63;;;16.30;99.90;;;;;;5086097;28;20032;-55
2023/08/23 03:57:29;;;;;;;16.48;12.75;;;16.30;99.90;;;;;;5078377;28;20036;-54
2023/08/23 03:59:55;;;;;;;12.30;10.77;;;16.30;99.90;;;;;;5077755;28;20391;-53
2023/08/23 04:02:21;;;;;;;13.98;11.30;;;16.30;99.90;;;;;;5078423;28;20077;-56
2023/08/23 04:04:46;;;;;;;18.05;13.48;;;16.30;99.90;;;;;;5064822;28;20036;-51
2023/08/23 04:07:14;;;;;;;14.15;11.77;;;16.30;99.90;;;;;;5047312;28;20024;-54
2023/08/23 04:09:40;;;;;;;13.80;11.30;;;16.30;99.90;;;;;;5078185;28;20040;-55
2023/08/23 04:12:06;;;;;;;11.98;10.32;;;16.30;99.90;;;;;;5081197;28;20040;-53
2023/08/23 04:14:32;;;;;;;15.23;12.50;;;16.30;99.90;;;;;;5087386;28;20048;-53
2023/08/23 04:16:59;;;;;;;11.95;10.00;;;16.30;99.90;;;;;;5079832;28;20040;-54
2023/08/23 04:19:25;;;;;;;13.63;11.57;;;16.30;99.90;;;;;;5066423;28;20055;-51
2023/08/23 04:21:51;;;;;;;12.98;11.57;;;16.30;99.90;;;;;;5043200;28;20066;-53
2023/08/23 04:24:17;;;;;;;14.18;12.20;;;16.30;99.90;;;;;;5065376;28;20036;-54
2023/08/23 04:26:42;;;;;;;13.52;12.13;;;16.30;99.90;;;;;;5086088;28;20102;-51
2023/08/23 04:29:08;;;;;;;12.13;10.32;;;16.30;99.90;;;;;;5048105;28;20520;-52
2023/08/23 04:31:34;;;;;;;13.05;11.25;;;16.30;99.90;;;;;;5048641;28;20166;-54
2023/08/23 04:34:02;;;;;;;15.45;12.20;;;16.30;99.90;;;;;;5034404;28;20051;-50
2023/08/23 04:36:28;;;;;;;15.57;11.70;;;16.30;99.90;;;;;;5065499;28;20047;-52
2023/08/23 04:38:54;;;;;;;13.05;10.15;;;16.20;99.90;;;;;;5076782;28;20043;-53
2023/08/23 04:41:19;;;;;;;16.48;13.40;;;16.20;99.90;;;;;;5060538;28;20045;-50
2023/08/23 04:43:45;;;;;;;14.68;12.18;;;16.20;99.90;;;;;;5049267;28;20119;-51
2023/08/23 04:46:11;;;;;;;12.45;11.10;;;16.10;99.90;;;;;;5070216;28;20042;-52
2023/08/23 04:48:37;;;;;;;16.10;12.35;;;16.10;99.90;;;;;;5073384;28;20044;-51
2023/08/23 04:51:08;;;;;;;14.93;12.85;;;16.10;99.90;;;;;;5049114;28;20493;-51
2023/08/23 04:53:33;;;;;;;15.18;12.27;;;16.10;99.90;;;;;;5071808;28;20383;-51
2023/08/23 04:56:27;;;;;;;17.77;13.75;;;16.10;99.90;;;;;;5065467;28;20391;-51
2023/08/23 04:58:53;;;;;;;16.08;12.60;;;16.10;99.90;;;;;;5087076;28;20036;-50
2023/08/23 05:01:19;;;;;;;14.40;11.93;;;16.10;99.90;;;;;;5068529;28;20047;-53
2023/08/23 05:03:44;;;;;;;18.63;13.85;;;16.10;99.90;;;;;;5087457;28;20048;-50
2023/08/23 05:06:10;;;;;;;19.48;15.77;;;16.10;99.90;;;;;;5073596;28;20337;-51
2023/08/23 05:08:36;;;;;;;20.98;15.10;;;16.10;99.90;;;;;;5081946;28;20059;-53
2023/08/23 05:11:02;;;;;;;19.25;15.27;;;16.10;99.90;;;;;;5064509;28;20043;-55
2023/08/23 05:13:28;;;;;;;20.35;15.88;;;16.10;99.90;;;;;;5052477;28;20453;-51
2023/08/23 05:15:55;;;;;;;19.27;14.85;;;16.10;99.90;;;;;;5062272;28;20116;-55
2023/08/23 05:18:22;;;;;;;22.65;14.80;;;16.10;99.90;;;;;;5088649;28;20038;-54
2023/08/23 05:20:59;;;;;;;25.25;18.65;;;16.10;99.90;;;;;;5064268;28;20048;-53
2023/08/23 05:23:25;;;;;;;21.20;16.45;;;16.10;99.90;;;;;;5085044;28;20105;-54
2023/08/23 05:25:52;;;;;;;24.55;19.70;;;16.10;99.90;;;;;;5084311;28;20063;-56
2023/08/23 05:28:19;;;;;;;26.17;17.15;;;16.10;99.90;;;;;;5064676;28;20415;-52
2023/08/23 05:30:45;;;;;;;25.50;19.52;;;16.10;99.90;;;;;;5069095;28;20079;-55
2023/08/23 05:33:12;;;;;;;19.20;15.60;;;16.10;99.90;;;;;;5084981;28;20048;-55
2023/08/23 05:35:40;;;;;;;21.67;17.13;;;16.10;99.90;;;;;;5070463;28;20064;-53
2023/08/23 05:38:07;;;;;;;22.88;17.50;;;16.10;99.90;;;;;;5084191;28;20122;-52
2023/08/23 05:40:33;;;;;;;19.85;16.38;;;16.20;99.90;;;;;;5080175;28;20044;-55
2023/08/23 05:42:59;;;;;;;21.45;15.80;;;16.20;99.90;;;;;;5084789;28;20036;-52
2023/08/23 05:45:26;;;;;;;24.33;18.00;;;16.20;99.90;;;;;;5047167;28;20140;-54
2023/08/23 05:47:56;;;;;;;24.17;17.55;;;16.20;99.90;;;;;;5050982;28;20107;-54
2023/08/23 05:50:22;;;;;;;23.25;18.55;;;16.30;99.90;;;;;;5070330;28;20043;-51
2023/08/23 05:52:48;;;;;;;23.00;17.65;;;16.30;99.90;;;;;;5070437;28;20036;-55
2023/08/23 05:55:14;;;;;;;24.02;19.58;;;16.30;99.90;;;;;;5071009;28;20044;-55
2023/08/23 05:57:40;;;;;;;23.95;18.83;;;16.40;99.90;;;;;;5082939;28;20040;-53
2023/08/23 06:00:06;;;;;;;20.48;16.35;;;16.50;99.90;;;;;;5067268;28;20044;-53
2023/08/23 06:02:32;;;;;;;24.92;19.30;;;16.50;99.90;;;;;;5094531;28;20446;-54
2023/08/23 06:04:58;;;;;;;26.55;19.30;;;16.60;99.90;;;;;;5054484;28;20185;-53
2023/08/23 06:07:24;;;;;;;26.33;19.42;;;16.60;99.90;;;;;;5067296;28;20078;-53
2023/08/23 06:09:50;;;;;;;22.40;18.35;;;16.70;99.90;;;;;;5069696;28;20126;-54
2023/08/23 06:12:16;;;;;;;23.55;18.50;;;16.70;99.90;;;;;;5064722;28;20039;-52
2023/08/23 06:14:45;;;;;;;28.23;19.23;;;16.80;99.90;;;;;;5069785;28;20063;-51
2023/08/23 06:17:10;;;;;;;25.83;20.77;;;16.90;99.90;;;;;;5067842;28;20063;-57
2023/08/23 06:19:36;;;;;;;27.35;22.00;;;16.90;99.90;;;;;;5065584;28;20070;-53
2023/08/23 06:22:02;;;;;;;27.65;22.30;;;17.00;99.90;;;;;;5067523;28;20093;-54
2023/08/23 06:24:27;;;;;;;25.67;19.40;;;17.10;99.90;;;;;;5044176;28;20501;-54
2023/08/23 06:26:53;;;;;;;29.58;22.27;;;17.20;99.90;;;;;;5060527;28;20502;-55
2023/08/23 06:29:19;;;;;;;29.92;22.33;;;17.30;99.90;;;;;;5061075;28;20047;-52
2023/08/23 06:31:45;;;;;;;26.42;20.67;;;17.30;99.90;;;;;;5066506;28;20116;-54
2023/08/23 06:34:10;;;;;;;26.45;21.20;;;17.40;99.90;;;;;;5066127;28;20040;-51
2023/08/23 06:36:36;;;;;;;36.13;23.52;;;17.50;99.90;;;;;;5064232;28;20036;-52
2023/08/23 06:39:02;;;;;;;23.95;19.40;;;17.70;99.90;;;;;;5085756;28;20036;-52
2023/08/23 06:41:28;;;;;;;30.73;23.58;;;17.70;99.90;;;;;;5055518;28;20044;-56
2023/08/23 06:44:01;;;;;;;29.38;21.92;;;17.90;99.90;;;;;;5065432;28;20052;-53
2023/08/23 06:46:28;;;;;;;24.17;19.23;;;17.90;99.90;;;;;;5083695;28;20036;-56
2023/08/23 06:48:57;;;;;;;26.20;21.92;;;18.00;99.90;;;;;;5051269;28;20417;-53
2023/08/23 06:51:23;;;;;;;26.13;21.98;;;18.10;99.90;;;;;;5079365;28;20032;-51
2023/08/23 06:53:53;;;;;;;27.65;20.90;;;18.20;99.90;;;;;;5046843;28;20043;-52
2023/08/23 06:56:19;;;;;;;27.15;21.48;;;18.20;99.90;;;;;;5048889;28;20036;-54
2023/08/23 06:58:45;;;;;;;26.48;22.58;;;18.30;99.90;;;;;;5077386;28;20067;-54
2023/08/23 07:01:14;;;;;;;28.58;21.80;;;18.40;99.90;;;;;;5060909;28;20127;-51
2023/08/23 07:03:41;;;;;;;23.40;20.27;;;18.50;99.90;;;;;;5061662;28;20036;-53
2023/08/23 07:06:07;;;;;;;26.17;21.88;;;18.50;99.90;;;;;;5050577;28;20481;-53
2023/08/23 07:08:33;;;;;;;25.30;20.83;;;18.60;99.90;;;;;;5064909;28;20101;-54
2023/08/23 07:10:59;;;;;;;24.77;21.00;;;18.60;99.90;;;;;;5087040;28;20118;-51
2023/08/23 07:13:25;;;;;;;23.20;19.40;;;18.70;99.90;;;;;;5049960;28;20119;-53
2023/08/23 07:15:50;;;;;;;22.15;18.67;;;18.70;99.90;;;;;;5084180;28;20054;-57
2023/08/23 07:18:16;;;;;;;24.17;19.42;;;18.80;99.90;;;;;;5065436;28;20075;-54
2023/08/23 07:20:42;;;;;;;22.20;19.52;;;18.80;99.90;;;;;;5068025;28;20031;-51
2023/08/23 07:23:07;;;;;;;20.20;17.65;;;19.00;99.90;;;;;;5047567;28;20081;-51
2023/08/23 07:25:33;;;;;;;23.85;19.90;;;19.10;99.90;;;;;;5044592;28;20040;-53
2023/08/23 07:27:59;;;;;;;25.42;20.27;;;19.20;99.90;;;;;;5066664;28;20043;-54
2023/08/23 07:30:25;;;;;;;23.60;19.27;;;19.30;99.90;;;;;;5060718;28;20079;-54
2023/08/23 07:32:50;;;;;;;25.92;20.70;;;19.30;99.90;;;;;;5057654;28;20032;-54
2023/08/23 07:35:16;;;;;;;22.25;19.35;;;19.40;99.90;;;;;;5038870;28;20646;-50
2023/08/23 07:37:42;;;;;;;22.98;17.27;;;19.40;99.90;;;;;;5046974;28;20093;-54
2023/08/23 07:40:09;;;;;;;28.10;20.00;;;19.50;99.90;;;;;;5074515;28;20032;-57
2023/08/23 07:42:35;;;;;;;22.10;18.55;;;19.50;99.90;;;;;;5085195;28;20510;-58
2023/08/23 07:45:03;;;;;;;24.10;17.67;;;19.60;99.90;;;;;;5082998;28;20081;-53
2023/08/23 07:47:28;;;;;;;24.60;18.67;;;19.60;99.90;;;;;;5041409;28;20032;-53
2023/08/23 07:49:54;;;;;;;22.80;17.80;;;19.70;99.90;;;;;;5080870;28;20035;-53
2023/08/23 07:52:20;;;;;;;24.58;18.55;;;19.90;99.90;;;;;;5060832;28;20044;-55
2023/08/23 07:54:45;;;;;;;23.35;18.10;;;20.00;99.90;;;;;;5049333;28;20089;-57
2023/08/23 07:57:14;;;;;;;20.33;17.55;;;20.10;99.90;;;;;;5079371;28;20123;-54
2023/08/23 07:59:40;;;;;;;25.30;17.33;;;20.10;99.90;;;;;;5060470;28;20075;-54
2023/08/23 08:02:06;;;;;;;23.70;20.50;;;20.10;99.90;;;;;;5062916;28;20520;-55
2023/08/23 08:04:32;;;;;;;24.50;19.33;;;20.20;99.90;;;;;;5064097;28;20132;-57
2023/08/23 08:06:57;;;;;;;26.63;20.17;;;20.20;99.90;;;;;;5066926;28;20157;-54
2023/08/23 08:09:23;;;;;;;21.65;17.88;;;20.30;99.90;;;;;;5082233;28;20054;-53
2023/08/23 08:11:49;;;;;;;26.83;19.40;;;20.30;99.90;;;;;;5080834;28;20066;-54
2023/08/23 08:14:15;;;;;;;23.73;18.45;;;20.40;99.90;;;;;;5062405;28;20036;-55
2023/08/23 08:16:40;;;;;;;20.95;17.55;;;20.50;99.90;;;;;;5045088;28;20032;-56
2023/08/23 08:19:06;;;;;;;23.45;17.88;;;20.70;99.90;;;;;;5034609;28;20355;-53
2023/08/23 08:21:32;;;;;;;22.33;16.83;;;20.80;99.90;;;;;;5052737;28;20083;-55
2023/08/23 08:23:58;;;;;;;22.83;15.70;;;21.00;99.90;;;;;;5068887;28;20075;-56
2023/08/23 08:26:24;;;;;;;19.95;14.95;;;21.10;99.90;;;;;;5061941;28;20048;-54
2023/08/23 08:28:50;;;;;;;21.40;15.57;;;21.20;99.90;;;;;;5053662;28;20047;-53
2023/08/23 08:31:16;;;;;;;23.60;15.63;;;21.30;99.90;;;;;;5063223;28;20040;-56
2023/08/23 08:33:42;;;;;;;16.70;14.65;;;21.40;99.90;;;;;;5064899;28;20036;-54
2023/08/23 08:36:08;;;;;;;19.38;13.55;;;21.60;99.90;;;;;;5067412;28;20079;-57
2023/08/23 08:38:33;;;;;;;17.30;11.77;;;21.70;99.90;;;;;;5060049;28;20507;-55
2023/08/23 08:40:59;;;;;;;11.52;9.15;;;21.70;99.90;;;;;;5058982;28;20044;-55
2023/08/23 08:43:25;;;;;;;14.00;9.57;;;21.70;99.90;;;;;;5065496;28;20476;-53
2023/08/23 08:45:51;;;;;;;16.90;10.35;;;21.80;99.90;;;;;;5065292;28;20036;-55
2023/08/23 08:48:17;;;;;;;15.60;10.15;;;21.90;99.90;;;;;;5052314;28;20267;-54
2023/08/23 08:50:43;;;;;;;16.48;11.32;;;21.90;99.90;;;;;;5087619;28;20032;-54
2023/08/23 08:53:15;;;;;;;13.18;8.65;;;21.90;99.90;;;;;;5070013;28;20545;-52
2023/08/23 08:55:41;;;;;;;10.65;7.35;;;21.90;99.90;;;;;;5087827;28;20036;-55
2023/08/23 08:58:08;;;;;;;11.55;7.72;;;21.80;99.90;;;;;;5047140;28;20044;-53
2023/08/23 09:00:35;;;;;;;13.05;7.47;;;21.90;99.90;;;;;;5068496;28;20360;-54
2023/08/23 09:03:02;;;;;;;14.52;7.00;;;21.80;99.90;;;;;;5069667;28;20044;-52
2023/08/23 09:05:28;;;;;;;13.52;7.88;;;21.90;99.90;;;;;;5038218;28;20394;-54
2023/08/23 09:07:56;;;;;;;10.63;6.90;;;22.00;99.90;;;;;;5052058;28;20510;-53
2023/08/23 09:10:22;;;;;;;14.10;7.10;;;22.10;99.90;;;;;;5067600;28;20044;-52
2023/08/23 09:12:48;;;;;;;13.15;7.25;;;22.40;99.90;;;;;;5060322;28;20047;-55
2023/08/23 09:15:19;;;;;;;11.32;8.35;;;22.60;99.90;;;;;;5066677;28;20495;-55
2023/08/23 09:17:45;;;;;;;11.32;7.22;;;22.80;99.90;;;;;;5091049;28;20064;-56
2023/08/23 09:20:11;;;;;;;12.30;7.22;;;22.90;99.90;;;;;;5071900;28;20170;-53
2023/08/23 09:22:36;;;;;;;13.30;5.82;;;23.10;99.90;;;;;;5059261;28;20039;-52
2023/08/23 09:25:08;;;;;;;9.60;5.75;;;23.30;99.90;;;;;;5070074;28;20036;-55
2023/08/23 09:27:33;;;;;;;11.85;6.57;;;23.30;99.90;;;;;;5076100;28;20178;-54
2023/08/23 09:30:03;;;;;;;8.25;5.82;;;23.30;99.90;;;;;;5087695;28;20040;-53
2023/08/23 09:32:29;;;;;;;11.02;5.80;;;23.30;99.90;;;;;;5058546;28;20058;-54
2023/08/23 09:34:56;;;;;;;16.65;6.05;;;23.30;99.90;;;;;;5048822;28;20047;-52
2023/08/23 09:37:30;;;;;;;8.93;5.28;;;23.30;99.90;;;;;;5066167;28;20044;-54
2023/08/23 09:39:56;;;;;;;11.38;4.70;;;23.30;99.90;;;;;;5069533;28;20044;-55
2023/08/23 09:42:22;;;;;;;10.68;5.10;;;23.40;99.90;;;;;;5084147;28;20037;-53
2023/08/23 09:44:51;;;;;;;8.70;5.30;;;23.50;99.90;;;;;;5053050;28;20044;-52
2023/08/23 09:47:21;;;;;;;10.63;6.80;;;23.70;99.90;;;;;;5074820;28;20115;-54
2023/08/23 09:49:48;;;;;;;9.63;5.97;;;23.80;99.90;;;;;;5053068;28;20104;-54
2023/08/23 09:52:14;;;;;;;8.52;5.50;;;24.00;99.90;;;;;;5069249;28;20133;-52
2023/08/23 09:54:54;;;;;;;10.30;5.78;;;24.20;99.90;;;;;;5053965;28;20472;-51
2023/08/23 09:57:21;;;;;;;10.23;5.72;;;24.50;99.90;;;;;;5073184;28;20526;-55
2023/08/23 10:00:22;;;;;;;9.85;6.25;;;24.70;99.90;;;;;;5087420;28;20040;-51
2023/08/23 10:02:48;;;;;;;10.52;5.63;;;24.60;99.90;;;;;;5071117;28;20040;-53
2023/08/23 10:05:14;;;;;;;9.65;4.93;;;24.60;99.90;;;;;;5069474;28;20095;-57
2023/08/23 10:07:44;;;;;;;7.07;3.92;;;24.50;99.90;;;;;;5086190;28;20283;-53
2023/08/23 10:10:10;;;;;;;7.88;4.25;;;24.60;99.90;;;;;;5068221;28;20040;-51
2023/08/23 10:12:42;;;;;;;9.93;3.40;;;24.60;99.90;;;;;;5068238;28;20081;-53
2023/08/23 10:15:11;;;;;;;7.40;3.20;;;24.30;99.90;;;;;;5057780;28;20040;-57
2023/08/23 10:17:39;;;;;;;8.70;3.55;;;24.20;99.90;;;;;;5065174;28;20058;-54
2023/08/23 10:20:07;;;;;;;5.20;4.07;;;24.00;99.90;;;;;;5082912;28;20213;-53
2023/08/23 10:22:33;;;;;;;9.32;4.40;;;23.70;99.90;;;;;;5062735;28;20048;-54
2023/08/23 10:24:59;;;;;;;6.65;3.10;;;23.50;99.90;;;;;;5082704;28;20055;-56
2023/08/23 10:27:25;;;;;;;7.80;3.00;;;23.60;99.90;;;;;;5034195;28;20495;-50
2023/08/23 10:29:51;;;;;;;5.88;3.42;;;23.90;99.90;;;;;;5066201;28;20040;-55
2023/08/23 10:32:17;;;;;;;5.97;3.05;;;24.10;99.90;;;;;;5068009;28;20339;-53
2023/08/23 10:34:43;;;;;;;6.65;3.60;;;24.40;99.90;;;;;;5060186;28;20056;-53
2023/08/23 10:37:19;;;;;;;5.70;3.20;;;24.70;99.90;;;;;;5087737;28;20407;-55
2023/08/23 10:39:49;;;;;;;6.68;3.70;;;24.80;99.90;;;;;;5043516;28;20032;-56
2023/08/23 10:42:18;;;;;;;6.15;3.15;;;24.80;99.90;;;;;;5059963;28;20498;-52
2023/08/23 10:44:45;;;;;;;7.65;3.63;;;25.00;99.90;;;;;;5055036;28;20067;-53
2023/08/23 10:47:12;;;;;;;8.02;3.28;;;25.10;99.90;;;;;;5055869;28;20472;-57
2023/08/23 10:49:40;;;;;;;5.72;2.88;;;25.30;99.90;;;;;;5065859;28;20079;-55
2023/08/23 10:52:07;;;;;;;7.30;3.83;;;25.40;99.90;;;;;;5067699;28;20177;-56
2023/08/23 10:54:34;;;;;;;10.95;4.28;;;25.50;99.90;;;;;;5065490;28;20056;-56
2023/08/23 10:57:00;;;;;;;8.18;3.83;;;25.70;99.90;;;;;;5059995;28;20052;-53
2023/08/23 10:59:25;;;;;;;6.38;3.10;;;25.70;99.90;;;;;;5051496;28;20051;-56
2023/08/23 11:01:51;;;;;;;9.48;3.00;;;25.60;99.90;;;;;;5081078;28;20044;-52
2023/08/23 11:04:18;;;;;;;10.60;3.85;;;25.60;99.30;;;;;;5066693;28;20271;-55
2023/08/23 11:10:25;;;;;;;7.75;3.03;;;25.50;99.90;;;;;;5087466;28;20533;-51
2023/08/23 11:12:51;;;;;;;8.43;3.05;;;25.60;99.90;;;;;;5085495;22;20033;-57
2023/08/23 11:15:17;;;;;;;7.97;2.50;;;25.90;99.90;;;;;;5049123;28;20099;-58
2023/08/23 11:17:43;;;;;;;6.45;2.47;;;26.10;99.90;;;;;;5029371;28;20040;-57
2023/08/23 11:20:10;;;;;;;7.72;2.70;;;26.10;99.50;;;;;;5042067;28;20132;-56
2023/08/23 11:22:36;;;;;;;8.00;2.63;;;25.70;98.90;;;;;;5050715;28;20055;-58
2023/08/23 11:25:02;;;;;;;7.82;3.35;;;25.10;98.30;;;;;;5036223;28;20041;-56
2023/08/23 11:27:29;;;;;;;8.43;3.20;;;24.80;99.70;;;;;;5055108;28;20041;-57
2023/08/23 11:29:59;;;;;;;6.95;2.67;;;24.70;99.90;;;;;;5040659;28;20051;-57
2023/08/23 11:32:26;;;;;;;5.70;2.70;;;24.60;99.90;;;;;;5046417;28;20059;-57
2023/08/23 11:34:54;;;;;;;6.07;2.63;;;24.60;99.90;;;;;;5043888;28;20132;-57
2023/08/23 11:37:22;;;;;;;6.25;3.20;;;24.90;99.90;;;;;;5045027;28;20107;-57
2023/08/23 11:39:59;;;;;;;10.55;3.40;;;25.20;99.90;;;;;;5045096;28;20041;-58
2023/08/23 11:42:26;;;;;;;7.75;3.03;;;25.50;99.00;;;;;;5042909;28;20036;-56
2023/08/23 11:44:55;;;;;;;6.70;3.13;;;25.60;99.20;;;;;;5062262;28;20107;-59
2023/08/23 11:47:27;;;;;;;7.32;2.20;;;25.50;99.30;;;;;;5044746;28;20095;-57
2023/08/23 11:49:53;;;;;;;5.38;2.10;;;25.70;99.10;;;;;;5057437;28;20037;-57
2023/08/23 11:52:19;;;;;;;8.50;2.72;;;26.10;98.80;;;;;;5038279;28;20052;-58
2023/08/23 11:54:45;;;;;;;6.93;2.03;;;26.40;98.30;;;;;;5058400;28;20397;-58
2023/08/23 11:57:15;;;;;;;5.80;1.88;;;26.20;97.90;;;;;;5053136;28;20080;-56
2023/08/23 11:59:41;;;;;;;10.90;2.17;;;26.50;98.00;;;;;;5042491;28;20076;-60
2023/08/23 12:02:07;;;;;;;6.03;1.80;;;26.60;97.40;;;;;;5044666;28;20112;-58
2023/08/23 12:04:33;;;;;;;4.10;1.80;;;26.20;96.50;;;;;;5044792;28;20772;-58
2023/08/23 12:06:59;;;;;;;4.80;1.60;;;26.00;96.80;;;;;;5041145;28;20127;-59
2023/08/23 12:09:27;;;;;;;4.85;1.88;;;25.70;95.90;;;;;;5046349;28;20041;-56
2023/08/23 12:11:53;;;;;;;4.10;1.45;;;25.50;96.90;;;;;;5046700;28;20136;-58
2023/08/23 12:14:19;;;;;;;7.13;2.13;;;25.50;97.20;;;;;;5027114;28;20123;-56
2023/08/23 12:16:45;;;;;;;4.28;1.75;;;25.80;97.10;;;;;;5044855;28;20500;-57
2023/08/23 12:19:11;;;;;;;2.63;1.17;;;25.90;95.10;;;;;;5046941;28;20048;-56
2023/08/23 12:21:36;;;;;;;3.05;1.30;;;26.10;96.10;;;;;;5045218;28;20086;-57
2023/08/23 12:24:02;;;;;;;3.67;1.80;;;26.30;95.90;;;;;;5064234;28;20028;-58
2023/08/23 12:26:28;;;;;;;4.15;1.33;;;26.20;95.30;;;;;;5044567;28;20056;-58
2023/08/23 12:28:54;;;;;;;5.53;1.50;;;26.20;96.00;;;;;;5035696;28;20072;-58
2023/08/23 12:31:20;;;;;;;3.30;1.10;;;26.40;95.10;;;;;;5041892;28;20110;-58
2023/08/23 12:33:46;;;;;;;4.50;1.75;;;26.30;94.80;;;;;;5044317;28;20045;-57
2023/08/23 12:36:15;;;;;;;3.92;1.10;;;26.20;95.50;;;;;;5044397;28;20615;-56
2023/08/23 12:38:41;;;;;;;5.53;1.60;;;26.10;95.50;;;;;;5036742;28;20099;-58